Terminal Aerodrome Forecast
Issued by NWS North Platte, NE

Home | Current Version | Previous Version | Graphics & Text | Print | Product List | Glossary On
Versions: 1 2 3 4 5 6 7 8 9 10 11 12 13 14
926
FTUS43 KLBF 041133
TAFVTN
TAF
KVTN 041133Z 0412/0512 27007KT P6SM SKC
     FM042200 26006KT P6SM SCT250
     FM050200 21006KT P6SM BKN100
     FM050700 VRB06KT P6SM OVC050 PROB30 0508/0512 3SM -SN BR
      OVC030=

USA.gov is the U.S. government's official web portal to all federal, state and local government web resources and services.